Mount Air, Ohio
Current Conditions -  °F | °C
As of 11:53 AM on Saturday 22 Nov 2014 (Local Time) from KOSU Reporting Station
Overcast Overcast  
Wind Chill: 30°   Ceiling: 5000
Heat Index: 37°   Visibility: 10mi
Dew Point: 31°   Wind: 9mph
Humidity: 79%   Direction: 200°SSW
Pressure: 30.21"   Gusts: NA
Location:  40.0994°N, 83.0166°W
Report Text: KOSU 221653Z AUTO 20008KT 10SM OVC050 03/M01 A3021 RMK AO2 SLP240 T00281006
Loading
Personal Weather Stations






























Interactive Weather Map New forecast layout! Learn more

10-Day Weather Forecast

Advertisements
Track Severe Weather on mobile